createdAt,value
2022-08-14T00:01:54.584Z,10.47
2022-08-14T00:04:35.830Z,11.80
2022-08-14T00:07:10.840Z,9.30
2022-08-14T00:10:01.323Z,10.07
2022-08-14T00:12:33.683Z,11.80
2022-08-14T00:15:17.980Z,10.37
2022-08-14T00:17:47.415Z,11.37
2022-08-14T00:20:23.697Z,9.80
2022-08-14T00:22:57.503Z,10.07
2022-08-14T00:25:41.553Z,12.50
2022-08-14T00:28:15.557Z,10.50
2022-08-14T00:30:46.949Z,8.33
2022-08-14T00:33:16.669Z,8.83
2022-08-14T00:36:37.265Z,7.93
2022-08-14T00:38:34.982Z,8.63
2022-08-14T00:41:06.113Z,8.03
2022-08-14T00:43:34.068Z,10.20
2022-08-14T00:46:05.232Z,10.20
2022-08-14T00:48:36.960Z,9.10
2022-08-14T00:51:07.600Z,13.17
2022-08-14T00:53:36.111Z,8.43
2022-08-14T00:56:07.072Z,7.87
2022-08-14T00:58:36.158Z,9.83
2022-08-14T01:01:14.476Z,8.07
2022-08-14T01:03:44.841Z,9.47
2022-08-14T01:06:16.973Z,9.33
2022-08-14T01:08:52.472Z,9.83
2022-08-14T01:11:35.397Z,9.60
2022-08-14T01:14:25.557Z,8.47
2022-08-14T01:16:52.909Z,12.57
2022-08-14T01:19:38.778Z,8.73
2022-08-14T01:22:12.764Z,8.23
2022-08-14T01:24:41.269Z,7.60
2022-08-14T01:27:09.073Z,6.90
2022-08-14T01:30:01.043Z,8.37
2022-08-14T01:32:25.891Z,7.20
2022-08-14T01:35:20.411Z,8.30
2022-08-14T01:37:46.707Z,10.80
2022-08-14T01:40:28.718Z,6.60
2022-08-14T01:43:04.868Z,7.23
2022-08-14T01:45:40.528Z,6.40
2022-08-14T01:48:13.293Z,7.40
2022-08-14T01:50:42.607Z,8.77
2022-08-14T01:53:13.580Z,7.40
2022-08-14T01:55:42.270Z,9.73
2022-08-14T01:58:19.850Z,10.20
2022-08-14T02:00:55.152Z,7.00
2022-08-14T02:03:24.402Z,7.43
2022-08-14T02:05:59.877Z,7.03
2022-08-14T02:08:35.461Z,7.17
2022-08-14T02:11:22.382Z,6.80
2022-08-14T02:13:53.112Z,7.10
2022-08-14T02:16:25.322Z,8.53
2022-08-14T02:18:55.511Z,11.10
2022-08-14T02:21:23.761Z,6.73
2022-08-14T02:23:55.072Z,7.50
2022-08-14T02:26:29.194Z,6.67
2022-08-14T02:29:00.700Z,6.23
2022-08-14T02:31:36.446Z,6.60
2022-08-14T02:34:21.826Z,7.13
2022-08-14T02:37:04.554Z,6.40
2022-08-14T02:39:38.465Z,6.20
2022-08-14T02:42:13.030Z,6.63
2022-08-14T02:44:43.042Z,6.73
2022-08-14T02:47:19.098Z,6.57
2022-08-14T02:49:50.714Z,7.50
2022-08-14T02:52:26.725Z,6.33
2022-08-14T02:55:15.583Z,6.93
2022-08-14T02:57:57.831Z,6.40
2022-08-14T03:00:26.347Z,6.53
2022-08-14T03:02:58.546Z,6.37
2022-08-14T03:05:35.872Z,6.30
2022-08-14T03:08:08.221Z,7.33
2022-08-14T03:10:41.981Z,7.17
2022-08-14T03:13:19.815Z,7.23
2022-08-14T03:15:55.750Z,7.13
2022-08-14T03:18:31.736Z,6.63
2022-08-14T03:21:00.821Z,7.03
2022-08-14T03:23:28.462Z,8.33
2022-08-14T03:25:57.748Z,7.27
2022-08-14T03:28:29.586Z,7.80
2022-08-14T03:31:01.618Z,6.67
2022-08-14T03:33:38.027Z,6.93
2022-08-14T03:37:28.882Z,8.53
2022-08-14T03:39:11.790Z,7.07
2022-08-14T03:41:45.417Z,6.90
2022-08-14T03:45:19.256Z,8.33
2022-08-14T03:47:02.848Z,7.27
2022-08-14T03:49:31.250Z,7.37
2022-08-14T03:52:04.637Z,7.30
2022-08-14T03:54:35.703Z,7.80
2022-08-14T03:57:05.588Z,10.70
2022-08-14T03:59:33.975Z,10.30
2022-08-14T04:02:04.416Z,8.27
2022-08-14T04:04:38.035Z,7.30
2022-08-14T04:07:10.849Z,8.07
2022-08-14T04:09:40.319Z,7.63
2022-08-14T04:12:13.525Z,7.60
2022-08-14T04:14:42.166Z,7.47
2022-08-14T04:17:10.345Z,7.80
2022-08-14T04:19:40.814Z,7.63
2022-08-14T04:22:09.006Z,7.73
2022-08-14T04:24:39.464Z,9.13
2022-08-14T04:27:09.905Z,7.07
2022-08-14T04:29:39.172Z,7.97
2022-08-14T04:33:10.696Z,6.90
2022-08-14T04:34:57.007Z,6.70
2022-08-14T04:37:42.899Z,7.97
2022-08-14T04:40:29.139Z,7.47
2022-08-14T04:43:17.168Z,7.53
2022-08-14T04:45:45.841Z,7.30
2022-08-14T04:48:39.244Z,8.07
2022-08-14T04:51:10.523Z,11.03
2022-08-14T04:53:43.485Z,12.30
2022-08-14T04:56:30.799Z,7.67
2022-08-14T04:59:10.147Z,7.63
2022-08-14T05:01:41.664Z,7.57
2022-08-14T05:04:16.239Z,7.43
2022-08-14T05:06:49.298Z,8.10
2022-08-14T05:09:17.311Z,7.70
2022-08-14T05:11:45.288Z,7.70
2022-08-14T05:14:33.757Z,6.87
2022-08-14T05:17:02.832Z,9.27
2022-08-14T05:19:32.489Z,7.53
2022-08-14T05:22:16.561Z,7.83
2022-08-14T05:24:49.668Z,8.00
2022-08-14T05:27:19.869Z,7.70
2022-08-14T05:29:53.619Z,7.80
2022-08-14T05:32:22.919Z,7.60
2022-08-14T05:34:57.805Z,7.80
2022-08-14T05:37:26.528Z,8.20
2022-08-14T05:39:54.887Z,8.13
2022-08-14T05:42:29.306Z,8.70
2022-08-14T05:45:01.311Z,9.60
2022-08-14T05:47:39.167Z,8.40
2022-08-14T05:50:19.338Z,8.07
2022-08-14T05:52:50.337Z,8.70
2022-08-14T05:55:21.971Z,7.47
2022-08-14T05:57:52.570Z,8.30
2022-08-14T06:00:29.979Z,8.20
2022-08-14T06:02:58.548Z,8.10
2022-08-14T06:05:29.423Z,9.00
2022-08-14T06:07:57.811Z,7.57
2022-08-14T06:10:25.837Z,9.53
2022-08-14T06:13:05.761Z,8.90
2022-08-14T06:15:34.750Z,8.40
2022-08-14T06:18:05.392Z,8.53
2022-08-14T06:20:35.303Z,9.20
2022-08-14T06:23:03.043Z,8.33
2022-08-14T06:25:31.651Z,8.00
2022-08-14T06:28:00.909Z,8.47
2022-08-14T06:30:46.215Z,9.87
2022-08-14T06:33:15.878Z,8.90
2022-08-14T06:35:43.803Z,9.33
2022-08-14T06:38:17.484Z,11.57
2022-08-14T06:40:46.038Z,9.73
2022-08-14T06:43:15.467Z,10.40
2022-08-14T06:45:50.312Z,10.13
2022-08-14T06:48:24.695Z,8.80
2022-08-14T06:50:53.745Z,12.17
2022-08-14T06:53:21.810Z,8.33
2022-08-14T06:56:00.505Z,9.07
2022-08-14T06:58:31.909Z,9.93
2022-08-14T07:01:26.962Z,10.37
2022-08-14T07:04:24.569Z,9.77
2022-08-14T07:06:55.743Z,10.03
2022-08-14T07:09:27.987Z,9.97
2022-08-14T07:11:56.359Z,11.10
2022-08-14T07:14:25.822Z,10.83
2022-08-14T07:16:55.411Z,10.47
2022-08-14T07:19:23.683Z,9.90
2022-08-14T07:21:51.315Z,9.73
2022-08-14T07:24:21.473Z,10.00
2022-08-14T07:26:49.991Z,9.43
2022-08-14T07:29:18.510Z,10.00
2022-08-14T07:31:51.782Z,11.47
2022-08-14T07:34:36.299Z,9.30
2022-08-14T07:37:09.936Z,8.77
2022-08-14T07:39:38.624Z,9.43
2022-08-14T07:42:07.987Z,9.20
2022-08-14T07:44:46.492Z,8.53
2022-08-14T07:47:16.879Z,10.60
2022-08-14T07:49:56.122Z,11.17
2022-08-14T07:52:30.591Z,11.43
2022-08-14T07:54:58.789Z,11.30
2022-08-14T07:57:27.471Z,11.00
2022-08-14T07:59:55.254Z,11.27
2022-08-14T08:02:23.436Z,10.90
2022-08-14T08:04:55.157Z,11.07
2022-08-14T08:07:30.690Z,9.60
2022-08-14T08:10:00.901Z,8.10
2022-08-14T08:12:32.309Z,8.20
2022-08-14T08:15:05.867Z,7.67
2022-08-14T08:17:38.588Z,8.60
2022-08-14T08:20:16.403Z,6.97
2022-08-14T08:22:49.709Z,9.43
2022-08-14T08:25:18.800Z,7.50
2022-08-14T08:27:56.117Z,7.60
2022-08-14T08:30:24.270Z,7.57
2022-08-14T08:32:53.497Z,6.93
2022-08-14T08:35:25.652Z,7.57
2022-08-14T08:39:18.382Z,7.60
2022-08-14T08:41:03.042Z,6.80
2022-08-14T08:43:33.186Z,6.33
2022-08-14T08:46:05.051Z,6.90
2022-08-14T08:48:54.208Z,7.07
2022-08-14T08:51:25.131Z,7.37
2022-08-14T08:53:59.655Z,7.57
2022-08-14T08:56:39.930Z,6.37
2022-08-14T08:59:21.167Z,6.80
2022-08-14T09:01:51.560Z,7.00
2022-08-14T09:04:24.348Z,6.20
2022-08-14T09:07:01.353Z,9.77
2022-08-14T09:09:53.968Z,5.90
2022-08-14T09:12:27.061Z,6.90
2022-08-14T09:15:00.042Z,8.83
2022-08-14T09:17:27.777Z,7.47
2022-08-14T09:19:55.359Z,5.63
2022-08-14T09:22:33.330Z,6.73
2022-08-14T09:25:12.370Z,5.60
2022-08-14T09:27:43.035Z,4.93
2022-08-14T09:30:30.697Z,5.10
2022-08-14T09:33:22.490Z,5.77
2022-08-14T09:36:04.608Z,4.90
2022-08-14T09:38:40.530Z,4.97
2022-08-14T09:41:17.782Z,4.63
2022-08-14T09:43:50.327Z,5.43
2022-08-14T09:46:21.377Z,5.70
2022-08-14T09:48:59.621Z,4.78
2022-08-14T09:51:33.059Z,6.90
2022-08-14T09:54:22.549Z,5.25
2022-08-14T09:56:57.168Z,5.90
2022-08-14T09:59:28.184Z,6.32
2022-08-14T10:02:00.024Z,4.88
2022-08-14T10:04:33.962Z,5.38
2022-08-14T10:07:03.488Z,4.60
2022-08-14T10:09:33.169Z,5.15
2022-08-14T10:12:01.325Z,4.68
2022-08-14T10:14:36.894Z,4.43
2022-08-14T10:17:08.371Z,5.07
2022-08-14T10:19:37.217Z,4.53
2022-08-14T10:23:21.874Z,4.25
2022-08-14T10:24:57.011Z,4.45
2022-08-14T10:27:27.126Z,5.88
2022-08-14T10:29:58.236Z,8.38
2022-08-14T10:32:28.283Z,6.90
2022-08-14T10:35:13.519Z,6.45
2022-08-14T10:37:46.691Z,6.00
2022-08-14T10:40:38.856Z,5.90
2022-08-14T10:43:16.660Z,6.28
2022-08-14T10:46:03.627Z,5.72
2022-08-14T10:48:45.784Z,7.68
2022-08-14T10:51:16.702Z,6.90
2022-08-14T10:53:56.806Z,7.88
2022-08-14T10:56:34.099Z,5.28
2022-08-14T10:59:03.825Z,6.47
2022-08-14T11:01:32.419Z,4.30
2022-08-14T11:04:06.404Z,4.07
2022-08-14T11:06:34.465Z,3.00
2022-08-14T11:09:12.472Z,4.63
2022-08-14T11:11:45.936Z,3.60
2022-08-14T11:14:22.456Z,4.20
2022-08-14T11:16:53.565Z,3.63
2022-08-14T11:19:24.313Z,6.25
2022-08-14T11:21:56.087Z,4.55
2022-08-14T11:24:50.981Z,6.10
2022-08-14T11:27:20.310Z,4.68
2022-08-14T11:29:52.824Z,3.10
2022-08-14T11:32:29.214Z,5.10
2022-08-14T11:34:57.736Z,3.30
2022-08-14T11:37:35.288Z,3.95
2022-08-14T11:40:16.632Z,3.60
2022-08-14T11:42:59.710Z,3.90
2022-08-14T11:45:30.093Z,4.65
2022-08-14T11:48:12.740Z,6.85
2022-08-14T11:50:46.514Z,5.28
2022-08-14T11:53:22.389Z,3.50
2022-08-14T11:55:57.010Z,4.18
2022-08-14T11:58:28.808Z,3.42
2022-08-14T12:01:00.422Z,4.13
2022-08-14T12:03:46.471Z,4.88
2022-08-14T12:06:29.438Z,3.80
2022-08-14T12:09:08.292Z,5.60
2022-08-14T12:11:44.034Z,3.67
2022-08-14T12:14:29.974Z,4.85
2022-08-14T12:17:04.116Z,5.80
2022-08-14T12:19:33.717Z,3.15
2022-08-14T12:22:02.894Z,2.88
2022-08-14T12:24:36.382Z,2.53
2022-08-14T12:27:04.834Z,4.70
2022-08-14T12:29:36.162Z,2.60
2022-08-14T12:32:09.126Z,2.75
2022-08-14T12:34:44.910Z,2.85
2022-08-14T12:37:12.835Z,2.97
2022-08-14T12:39:40.878Z,4.15
2022-08-14T12:42:11.813Z,4.43
2022-08-14T12:44:58.592Z,4.20
2022-08-14T12:47:31.276Z,3.20
2022-08-14T12:49:59.576Z,3.15
2022-08-14T12:52:36.226Z,3.03
2022-08-14T12:55:20.814Z,3.90
2022-08-14T12:57:49.430Z,2.83
2022-08-14T13:00:24.537Z,3.30
2022-08-14T13:02:55.152Z,3.38
2022-08-14T13:05:25.165Z,2.97
2022-08-14T13:07:55.267Z,3.55
2022-08-14T13:10:46.734Z,3.13
2022-08-14T13:13:15.198Z,2.80
2022-08-14T13:15:47.824Z,3.38
2022-08-14T13:18:17.076Z,4.30
2022-08-14T13:20:51.304Z,4.72
2022-08-14T13:23:31.927Z,3.50
2022-08-14T13:26:00.359Z,3.25
2022-08-14T13:28:30.273Z,3.42
2022-08-14T13:31:10.907Z,3.70
2022-08-14T13:33:41.262Z,3.17
2022-08-14T13:36:11.035Z,4.07
2022-08-14T13:38:51.675Z,3.28
2022-08-14T13:41:28.086Z,5.40
2022-08-14T13:44:03.309Z,4.35
2022-08-14T13:46:32.645Z,3.83
2022-08-14T13:49:00.519Z,3.78
2022-08-14T13:51:33.190Z,3.92
2022-08-14T13:54:10.403Z,3.30
2022-08-14T13:56:40.114Z,3.50
2022-08-14T13:59:08.799Z,5.65
2022-08-14T14:01:43.942Z,3.47
2022-08-14T14:04:19.254Z,3.00
2022-08-14T14:06:52.095Z,4.18
2022-08-14T14:09:24.437Z,3.45
2022-08-14T14:11:52.812Z,3.42
2022-08-14T14:14:29.448Z,3.35
2022-08-14T14:17:13.754Z,3.33
2022-08-14T14:19:46.310Z,3.38
2022-08-14T14:22:35.755Z,3.63
2022-08-14T14:25:04.823Z,3.22
2022-08-14T14:27:41.502Z,4.15
2022-08-14T14:30:46.974Z,4.68
2022-08-14T14:33:04.323Z,5.00
2022-08-14T14:35:39.794Z,3.25
2022-08-14T14:38:08.674Z,3.28
2022-08-14T14:40:53.054Z,3.50
2022-08-14T14:43:24.992Z,2.78
2022-08-14T14:45:55.859Z,3.47
2022-08-14T14:48:28.270Z,3.28
2022-08-14T14:50:56.887Z,2.90
2022-08-14T14:53:26.352Z,3.30
2022-08-14T14:56:47.821Z,2.80
2022-08-14T14:58:43.617Z,6.60
2022-08-14T15:01:15.742Z,3.28
2022-08-14T15:03:46.107Z,3.30
2022-08-14T15:06:17.658Z,3.10
2022-08-14T15:08:55.448Z,3.20
2022-08-14T15:11:26.125Z,3.08
2022-08-14T15:13:57.983Z,3.65
2022-08-14T15:16:26.814Z,3.38
2022-08-14T15:18:58.808Z,2.70
2022-08-14T15:21:26.645Z,3.38
2022-08-14T15:23:55.037Z,3.13
2022-08-14T15:26:23.857Z,3.10
2022-08-14T15:29:03.000Z,3.35
2022-08-14T15:31:36.244Z,3.10
2022-08-14T15:34:43.216Z,5.45
2022-08-14T15:37:02.226Z,5.65
2022-08-14T15:39:35.524Z,2.95
2022-08-14T15:42:14.905Z,3.08
2022-08-14T15:44:56.533Z,2.88
2022-08-14T15:47:27.992Z,3.45
2022-08-14T15:49:59.508Z,3.35
2022-08-14T15:52:34.413Z,3.78
2022-08-14T15:55:05.365Z,3.30
2022-08-14T15:57:33.706Z,6.03
2022-08-14T16:00:37.974Z,3.03
2022-08-14T16:03:14.295Z,3.30
2022-08-14T16:05:46.309Z,2.72
2022-08-14T16:08:29.428Z,2.88
2022-08-14T16:11:02.306Z,4.18
2022-08-14T16:13:39.551Z,3.65
2022-08-14T16:16:47.544Z,2.90
2022-08-14T16:19:07.467Z,3.78
2022-08-14T16:21:40.640Z,5.30
2022-08-14T16:24:26.769Z,3.03
2022-08-14T16:26:56.129Z,3.05
2022-08-14T16:29:29.947Z,5.80
2022-08-14T16:31:59.089Z,3.10
2022-08-14T16:34:45.433Z,3.17
2022-08-14T16:37:18.632Z,2.50
2022-08-14T16:39:48.645Z,2.90
2022-08-14T16:43:03.460Z,3.63
2022-08-14T16:45:05.339Z,3.47
2022-08-14T16:47:35.053Z,2.92
2022-08-14T16:50:08.663Z,4.57
2022-08-14T16:52:44.881Z,3.25
2022-08-14T16:55:30.554Z,3.25
2022-08-14T16:57:59.218Z,2.72
2022-08-14T17:00:32.977Z,3.00
2022-08-14T17:03:04.608Z,3.30
2022-08-14T17:05:39.292Z,3.00
2022-08-14T17:08:32.779Z,3.13
2022-08-14T17:11:10.848Z,2.92
2022-08-14T17:13:57.831Z,2.97
2022-08-14T17:16:31.690Z,3.35
2022-08-14T17:19:01.757Z,5.72
2022-08-14T17:21:34.415Z,2.80
2022-08-14T17:24:56.985Z,3.10
2022-08-14T17:26:59.864Z,3.92
2022-08-14T17:29:31.319Z,3.00
2022-08-14T17:32:02.377Z,3.17
2022-08-14T17:34:46.784Z,3.70
2022-08-14T17:37:29.228Z,3.92
2022-08-14T17:40:15.130Z,3.10
2022-08-14T17:43:04.354Z,3.75
2022-08-14T17:45:45.325Z,3.63
2022-08-14T17:49:10.557Z,5.35
2022-08-14T17:51:23.841Z,2.80
2022-08-14T17:54:02.629Z,2.75
2022-08-14T17:56:33.930Z,3.10
2022-08-14T17:59:04.965Z,3.83
2022-08-14T18:01:35.512Z,2.70
2022-08-14T18:04:05.358Z,3.22
2022-08-14T18:06:39.639Z,6.43
2022-08-14T18:09:25.234Z,4.18
2022-08-14T18:11:56.982Z,4.55
2022-08-14T18:14:32.293Z,3.30
2022-08-14T18:17:01.425Z,2.70
2022-08-14T18:19:31.292Z,2.70
2022-08-14T18:22:05.769Z,2.75
2022-08-14T18:24:53.331Z,3.03
2022-08-14T18:27:24.439Z,3.95
2022-08-14T18:29:55.838Z,3.60
2022-08-14T18:32:47.502Z,4.22
2022-08-14T18:35:24.295Z,2.55
2022-08-14T18:38:26.074Z,3.75
2022-08-14T18:41:36.860Z,3.72
2022-08-14T18:44:10.809Z,27.20
2022-08-14T18:47:15.917Z,16.58
2022-08-14T18:50:26.304Z,7.35
2022-08-14T18:52:53.815Z,14.23
2022-08-14T18:55:53.333Z,6.00
2022-08-14T18:58:30.980Z,7.32
2022-08-14T19:01:01.506Z,3.20
2022-08-14T19:03:57.442Z,2.97
2022-08-14T19:06:56.445Z,4.50
2022-08-14T19:09:53.481Z,2.85
2022-08-14T19:13:00.408Z,3.03
2022-08-14T19:15:29.771Z,3.90
2022-08-14T19:18:14.674Z,4.70
2022-08-14T19:20:52.883Z,3.60
2022-08-14T19:23:42.343Z,3.35
2022-08-14T19:26:35.367Z,3.30
2022-08-14T19:29:24.128Z,2.97
2022-08-14T19:31:55.887Z,4.47
2022-08-14T19:34:52.589Z,3.35
2022-08-14T19:37:45.787Z,3.40
2022-08-14T19:40:15.349Z,3.42
2022-08-14T19:42:48.926Z,3.47
2022-08-14T19:45:16.769Z,4.88
2022-08-14T19:47:50.004Z,4.10
2022-08-14T19:50:37.661Z,4.57
2022-08-14T19:53:10.786Z,3.90
2022-08-14T19:55:45.453Z,4.53
2022-08-14T19:58:14.001Z,5.18
2022-08-14T20:00:52.226Z,6.95
2022-08-14T20:03:24.113Z,3.55
2022-08-14T20:06:05.380Z,3.35
2022-08-14T20:09:05.761Z,2.78
2022-08-14T20:12:00.830Z,3.83
2022-08-14T20:14:20.600Z,5.00
2022-08-14T20:16:55.396Z,2.65
2022-08-14T20:19:25.023Z,3.10
2022-08-14T20:22:04.628Z,5.10
2022-08-14T20:24:47.569Z,2.40
2022-08-14T20:27:33.117Z,7.22
2022-08-14T20:30:33.803Z,2.72
2022-08-14T20:33:08.038Z,3.42
2022-08-14T20:35:42.681Z,4.53
2022-08-14T20:38:29.649Z,4.20
2022-08-14T20:41:02.013Z,2.30
2022-08-14T20:43:53.326Z,2.80
2022-08-14T20:46:29.609Z,2.53
2022-08-14T20:48:59.981Z,4.90
2022-08-14T20:51:36.958Z,5.00
2022-08-14T20:54:09.077Z,2.10
2022-08-14T20:56:40.625Z,3.03
2022-08-14T20:59:17.612Z,3.25
2022-08-14T21:01:47.457Z,3.50
2022-08-14T21:04:27.897Z,4.77
2022-08-14T21:07:25.552Z,2.13
2022-08-14T21:10:04.998Z,2.70
2022-08-14T21:12:35.910Z,2.50
2022-08-14T21:15:11.039Z,2.97
2022-08-14T21:17:41.570Z,2.50
2022-08-14T21:20:26.247Z,4.50
2022-08-14T21:23:00.688Z,4.20
2022-08-14T21:25:31.802Z,2.03
2022-08-14T21:28:03.281Z,3.40
2022-08-14T21:30:46.838Z,2.20
2022-08-14T21:33:21.459Z,4.57
2022-08-14T21:35:55.006Z,3.77
2022-08-14T21:38:34.287Z,2.97
2022-08-14T21:41:42.386Z,2.50
2022-08-14T21:44:18.315Z,2.30
2022-08-14T21:46:50.957Z,3.13
2022-08-14T21:49:25.390Z,2.60
2022-08-14T21:52:49.744Z,4.10
2022-08-14T21:54:57.469Z,2.20
2022-08-14T21:57:56.200Z,2.20
2022-08-14T22:00:30.466Z,2.87
2022-08-14T22:03:05.847Z,4.83
2022-08-14T22:05:35.077Z,2.40
2022-08-14T22:08:07.294Z,2.00
2022-08-14T22:10:35.851Z,2.27
2022-08-14T22:13:05.324Z,3.20
2022-08-14T22:15:35.465Z,2.70
2022-08-14T22:18:04.827Z,1.90
2022-08-14T22:20:36.265Z,4.63
2022-08-14T22:23:12.572Z,4.10
2022-08-14T22:25:44.652Z,5.10
2022-08-14T22:28:19.587Z,5.93
2022-08-14T22:30:48.250Z,3.43
2022-08-14T22:33:26.675Z,3.20
2022-08-14T22:36:01.019Z,3.63
2022-08-14T22:38:35.520Z,3.77
2022-08-14T22:41:25.708Z,2.50
2022-08-14T22:44:03.301Z,3.43
2022-08-14T22:46:31.144Z,3.93
2022-08-14T22:48:58.777Z,5.50
2022-08-14T22:51:28.138Z,4.60
2022-08-14T22:53:58.168Z,2.60
2022-08-14T22:56:30.118Z,5.10
2022-08-14T22:58:59.183Z,2.07
2022-08-14T23:01:55.128Z,1.93
2022-08-14T23:04:35.016Z,3.43
2022-08-14T23:07:21.662Z,4.67
2022-08-14T23:09:57.676Z,3.27
2022-08-14T23:12:29.439Z,2.13
2022-08-14T23:14:59.269Z,3.10
2022-08-14T23:17:28.246Z,3.07
2022-08-14T23:20:19.279Z,2.67
2022-08-14T23:22:51.297Z,2.90
2022-08-14T23:25:57.079Z,3.70
2022-08-14T23:28:34.074Z,6.70
2022-08-14T23:30:56.091Z,6.30
2022-08-14T23:33:25.681Z,3.03
2022-08-14T23:35:59.519Z,2.53
2022-08-14T23:38:30.474Z,5.73
2022-08-14T23:41:00.754Z,3.60
2022-08-14T23:43:31.110Z,3.90
2022-08-14T23:45:59.641Z,3.67
2022-08-14T23:48:28.481Z,4.33
2022-08-14T23:50:58.723Z,3.20
2022-08-14T23:53:47.328Z,2.83
2022-08-14T23:56:18.648Z,2.27
2022-08-14T23:58:49.247Z,2.10
